Time;durP1;ratioP1;P1;durP2;ratioP2;P2;SDS_P1;SDS_P2;PMS_P1;PMS_P2;Temp;Humidity;BMP_temperature;BMP_pressure;BME280_temperature;BME280_humidity;BME280_pressure;Samples;Min_cycle;Max_cycle;Signal;HPM_P1;HPM_P2
2022/12/15 00:40:26;;;;;;;29.30;17.20;;;;;;;0.41;68.26;97701.27;225992;1243;138866;-67
2022/12/15 00:51:12;;;;;;;29.70;17.80;;;;;;;0.50;67.92;97718.85;226079;1237;138883;-67
2022/12/15 01:23:05;;;;;;;30.50;17.60;;;;;;;0.44;68.37;97747.72;226560;1249;138453;-67
2022/12/15 01:28:09;;;;;;;30.70;18.30;;;;;;;0.45;68.39;97757.61;227198;1243;138385;-67
2022/12/15 01:33:14;;;;;;;28.80;17.30;;;;;;;0.42;68.23;97763.19;225895;1246;138340;-67
2022/12/15 01:38:18;;;;;;;31.90;18.60;;;;;;;0.45;68.48;97771.77;225994;1238;138898;-65
2022/12/15 01:43:29;;;;;;;31.00;19.50;;;;;;;0.48;68.30;97768.86;225736;1240;139677;-66
2022/12/15 01:48:46;;;;;;;29.40;18.30;;;;;;;0.49;68.32;97771.77;227178;1236;139190;-66
2022/12/15 01:53:49;;;;;;;;;;;;;;;0.57;68.37;97775.29;226134;1240;139265;-65
2022/12/15 01:59:00;;;;;;;31.80;18.70;;;;;;;0.59;68.25;97779.38;226086;1237;124902;-63
2022/12/15 02:04:04;;;;;;;34.50;20.80;;;;;;;0.60;68.28;97778.64;225937;1237;139192;-63
2022/12/15 02:09:08;;;;;;;33.90;20.00;;;;;;;0.61;68.29;97785.21;226780;1228;143740;-65
2022/12/15 02:14:24;;;;;;;35.80;20.00;;;;;;;0.60;68.42;97792.60;229556;1206;138411;-64
2022/12/15 02:19:39;;;;;;;33.00;19.70;;;;;;;0.59;68.50;97799.11;226043;1232;138713;-64
2022/12/15 02:25:17;;;;;;;31.10;20.00;;;;;;;0.58;68.57;97796.69;225954;1243;138879;-64
2022/12/15 02:30:28;;;;;;;34.30;20.60;;;;;;;0.55;68.63;97805.38;225845;1243;139338;-67
2022/12/15 02:35:43;;;;;;;35.50;20.80;;;;;;;0.52;68.91;97815.46;225666;1237;138351;-67
2022/12/15 02:40:46;;;;;;;30.70;19.80;;;;;;;0.49;68.98;97822.35;226103;1231;137690;-68
2022/12/15 02:46:01;;;;;;;34.50;20.60;;;;;;;0.51;69.06;97829.63;226034;1248;138333;-66
2022/12/15 02:51:28;;;;;;;38.00;22.20;;;;;;;0.51;69.19;97834.49;226003;1244;138646;-67
2022/12/15 02:56:43;;;;;;;36.20;22.40;;;;;;;0.55;69.28;97838.69;227146;1244;139374;-68
2022/12/15 03:01:59;;;;;;;40.40;24.00;;;;;;;0.63;69.21;97843.09;226014;1250;139001;-67
2022/12/15 03:07:07;;;;;;;40.80;24.10;;;;;;;0.73;68.93;97839.69;226014;1240;138392;-65
2022/12/15 03:12:11;;;;;;;42.90;25.40;;;;;;;0.78;68.90;97842.48;225955;1243;139296;-64
2022/12/15 03:17:14;;;;;;;40.50;24.40;;;;;;;0.79;68.88;97846.09;225924;1236;138731;-64
2022/12/15 03:22:18;;;;;;;46.80;25.50;;;;;;;0.82;68.63;97844.75;226889;1228;138851;-65
2022/12/15 03:27:22;;;;;;;44.80;26.00;;;;;;;0.80;68.65;97845.16;225631;1240;139031;-66
2022/12/15 03:32:28;;;;;;;42.60;25.50;;;;;;;0.81;68.72;97849.48;225755;1243;138941;-64
2022/12/15 03:37:32;;;;;;;47.90;26.80;;;;;;;0.82;68.58;97852.77;225939;1237;138586;-65
2022/12/15 03:42:49;;;;;;;66.10;38.80;;;;;;;0.86;68.94;97864.66;226683;1240;138686;-65
2022/12/15 03:47:56;;;;;;;50.20;28.70;;;;;;;0.90;69.11;97874.42;225752;1240;138411;-65
2022/12/15 03:53:02;;;;;;;47.30;26.10;;;;;;;0.93;69.03;97881.81;226915;1242;138827;-67
2022/12/15 03:58:06;;;;;;;54.90;29.30;;;;;;;0.85;68.87;97891.02;225685;1242;138730;-66
2022/12/15 04:03:10;;;;;;;57.10;31.20;;;;;;;0.84;68.88;97891.81;226581;1237;139413;-68
2022/12/15 04:08:14;;;;;;;98.70;61.30;;;;;;;0.88;68.95;97900.52;225818;1242;139145;-66
2022/12/15 04:13:18;;;;;;;59.10;35.80;;;;;;;1.08;69.19;97899.86;226738;1234;138014;-66
2022/12/15 04:18:22;;;;;;;66.80;35.90;;;;;;;1.08;68.54;97905.64;225704;1241;137868;-67
2022/12/15 04:23:26;;;;;;;64.40;35.40;;;;;;;1.03;68.36;97915.26;225850;1240;138618;-67
2022/12/15 05:33:05;;;;;;;73.50;40.30;;;;;;;1.02;68.83;97983.41;225866;1247;138397;-71
2022/12/15 05:38:08;;;;;;;74.10;40.80;;;;;;;0.96;69.02;97996.04;226663;1244;138610;-66
2022/12/15 05:43:11;;;;;;;70.70;40.90;;;;;;;0.94;69.22;98007.83;225663;1244;139390;-66
2022/12/15 05:48:14;;;;;;;74.20;41.10;;;;;;;0.94;69.31;98017.61;226553;1237;139816;-74
2022/12/15 05:53:17;;;;;;;77.80;42.30;;;;;;;0.97;69.26;98027.81;225580;1242;139187;-71
2022/12/15 05:58:20;;;;;;;74.40;40.80;;;;;;;0.99;69.38;98025.29;225774;1243;138093;-71
2022/12/15 06:03:23;;;;;;;81.00;44.10;;;;;;;0.92;69.46;98039.88;225692;1243;138531;-76
2022/12/15 06:08:31;;;;;;;76.70;43.90;;;;;;;0.91;69.53;98050.90;226888;1237;138445;-66
2022/12/15 06:13:34;;;;;;;78.10;44.10;;;;;;;0.99;69.73;98051.30;225755;1240;138801;-66
2022/12/15 06:18:40;;;;;;;85.00;46.70;;;;;;;1.04;69.31;98056.00;225675;1242;138285;-65
2022/12/15 06:23:43;;;;;;;;;;;;;;;1.06;69.41;98066.89;225793;1246;139182;-65
2022/12/15 06:28:48;;;;;;;84.90;46.30;;;;;;;1.09;69.36;98079.91;225871;1244;124656;-65
2022/12/15 06:33:52;;;;;;;85.00;48.20;;;;;;;1.10;69.42;98088.95;225901;1241;138522;-64
2022/12/15 06:39:05;;;;;;;87.40;48.00;;;;;;;1.12;69.28;98111.21;225843;1248;137817;-65
2022/12/15 06:44:14;;;;;;;80.40;44.90;;;;;;;1.15;69.22;98124.02;226903;1230;139535;-65
2022/12/15 06:49:17;;;;;;;86.90;46.90;;;;;;;1.13;69.20;98136.51;225839;1246;138171;-64
2022/12/15 06:54:20;;;;;;;95.70;52.20;;;;;;;1.17;69.13;98134.92;225991;1238;138182;-65
2022/12/15 06:59:24;;;;;;;89.00;47.60;;;;;;;1.22;68.97;98141.08;225806;1241;138178;-63
2022/12/15 07:04:27;;;;;;;93.10;51.30;;;;;;;1.21;69.01;98148.10;225882;1242;138694;-65
2022/12/15 07:09:30;;;;;;;90.30;47.90;;;;;;;1.25;68.85;98151.23;225754;1246;138392;-64
2022/12/15 07:14:33;;;;;;;81.70;46.00;;;;;;;1.26;68.98;98153.63;225810;1241;138651;-64
2022/12/15 07:19:37;;;;;;;83.50;43.80;;;;;;;1.33;68.95;98164.02;227066;1227;139004;-68
2022/12/15 07:24:40;;;;;;;79.20;46.30;;;;;;;1.46;68.79;98179.95;225983;1250;139511;-68
2022/12/15 07:29:43;;;;;;;77.20;42.30;;;;;;;1.60;68.43;98183.42;225620;1241;138282;-67
2022/12/15 07:34:46;;;;;;;79.00;44.60;;;;;;;1.67;68.19;98184.17;225859;1234;138162;-68
2022/12/15 07:39:50;;;;;;;80.00;42.60;;;;;;;1.72;67.76;98196.93;227065;1236;138561;-72
2022/12/15 07:44:53;;;;;;;71.60;42.00;;;;;;;1.66;67.79;98216.04;225933;1244;138237;-71
2022/12/15 07:49:56;;;;;;;75.90;43.90;;;;;;;1.61;67.75;98220.23;225822;1241;139156;-70
2022/12/15 07:54:59;;;;;;;69.90;40.30;;;;;;;1.53;67.83;98226.35;225900;1242;139452;-71
2022/12/15 08:00:04;;;;;;;74.00;41.50;;;;;;;1.50;67.80;98243.60;225805;1241;138514;-65
2022/12/15 08:05:13;;;;;;;67.60;37.60;;;;;;;1.52;67.92;98258.02;225793;1241;137856;-69
2022/12/15 08:10:16;;;;;;;72.00;39.10;;;;;;;1.54;67.58;98262.81;225905;1234;138176;-67
2022/12/15 08:15:19;;;;;;;69.40;37.30;;;;;;;1.52;67.54;98267.80;225795;1243;138840;-68
2022/12/15 08:20:22;;;;;;;67.00;36.90;;;;;;;1.51;67.61;98282.36;226877;1239;138489;-69
2022/12/15 08:25:29;;;;;;;67.50;36.20;;;;;;;1.51;67.54;98288.14;225744;1237;138805;-68
2022/12/15 08:30:33;;;;;;;66.10;35.80;;;;;;;1.51;67.10;98294.25;225770;1253;138339;-73
2022/12/15 08:35:39;;;;;;;59.70;34.20;;;;;;;1.48;67.01;98314.44;225827;1246;138545;-71
2022/12/15 08:41:16;;;;;;;60.30;34.30;;;;;;;1.56;66.85;98330.06;226846;1240;139011;-71
2022/12/15 08:46:32;;;;;;;64.70;34.90;;;;;;;1.65;66.50;98334.98;225826;1248;139156;-70
2022/12/15 08:51:36;;;;;;;62.40;32.70;;;;;;;1.69;66.09;98339.91;225817;1234;137900;-78
2022/12/15 08:56:39;;;;;;;57.80;31.80;;;;;;;1.75;65.58;98349.98;226946;1247;137936;-65
2022/12/15 09:01:42;;;;;;;59.00;31.80;;;;;;;1.77;65.32;98358.48;225774;1253;140243;-67
2022/12/15 09:06:45;;;;;;;59.90;31.80;;;;;;;1.75;65.55;98352.59;225699;1241;139032;-67
2022/12/15 09:11:52;;;;;;;49.30;28.40;;;;;;;1.71;65.25;98356.95;225927;1253;139479;-67
2022/12/15 09:17:03;;;;;;;47.20;26.90;;;;;;;1.68;65.17;98354.43;226641;1233;138413;-66
2022/12/15 09:22:15;;;;;;;49.50;29.20;;;;;;;1.64;65.21;98354.23;227198;1236;139494;-65
2022/12/15 09:27:20;;;;;;;50.90;28.10;;;;;;;1.59;65.45;98361.39;225552;1238;139199;-66
2022/12/15 09:32:24;;;;;;;59.90;32.90;;;;;;;1.63;66.25;98358.82;225454;1241;139259;-66
2022/12/15 09:37:34;;;;;;;52.10;28.60;;;;;;;1.66;65.83;98353.12;225683;1238;138299;-65
2022/12/15 09:42:50;;;;;;;53.10;27.50;;;;;;;1.64;65.47;98356.33;225688;1238;138569;-66
2022/12/15 09:48:27;;;;;;;55.10;29.20;;;;;;;1.63;65.36;98365.27;225747;1239;138850;-66
2022/12/15 09:53:35;;;;;;;54.20;26.70;;;;;;;1.70;65.02;98366.61;225791;1243;139570;-65
2022/12/15 09:59:21;;;;;;;50.10;26.60;;;;;;;1.71;64.70;98372.51;226940;1243;138217;-65
2022/12/15 10:04:41;;;;;;;51.10;28.10;;;;;;;1.60;64.84;98374.12;226011;1241;138715;-64
2022/12/15 10:09:45;;;;;;;51.30;26.90;;;;;;;1.59;65.26;98373.83;225765;1241;138002;-65
2022/12/15 10:15:22;;;;;;;48.50;27.30;;;;;;;1.63;65.21;98376.48;226744;1241;138959;-65
2022/12/15 10:20:32;;;;;;;51.00;27.70;;;;;;;1.67;65.57;98379.83;225788;1241;138804;-65
2022/12/15 10:25:45;;;;;;;54.60;28.30;;;;;;;1.70;65.66;98371.85;226888;1234;138247;-65
2022/12/15 10:31:26;;;;;;;50.90;27.50;;;;;;;1.74;65.85;98372.05;226220;1242;138340;-65
2022/12/15 10:47:31;;;;;;;52.40;28.50;;;;;;;1.92;65.18;98388.88;222778;1240;138425;-65
2022/12/15 10:54:08;;;;;;;54.80;29.60;;;;;;;1.98;65.06;98384.82;222177;1242;137464;-65
2022/12/15 11:00:25;;;;;;;52.90;27.80;;;;;;;1.94;65.04;98371.13;222203;1235;137301;-64
2022/12/15 12:05:58;;;;;;;54.60;24.60;;;;;;;0.65;67.26;98445.86;222653;1239;635753;-68
2022/12/15 12:11:15;;;;;;;54.80;26.70;;;;;;;0.70;66.91;98445.70;225425;1240;137918;-69
2022/12/15 12:16:27;;;;;;;56.60;27.40;;;;;;;0.79;66.82;98449.61;226089;1225;137282;-68
2022/12/15 12:22:34;;;;;;;57.40;26.10;;;;;;;0.90;66.79;98451.68;225025;1241;137739;-66
2022/12/15 12:29:04;;;;;;;73.90;36.80;;;;;;;1.07;66.48;98461.59;224384;1246;137703;-66
2022/12/15 12:43:23;;;;;;;56.10;26.70;;;;;;;1.48;65.67;98467.21;225302;1246;111669;-66
2022/12/15 12:49:42;;;;;;;51.50;25.90;;;;;;;1.51;65.46;98471.30;225451;1233;136975;-66
2022/12/15 13:01:49;;;;;;;53.20;27.10;;;;;;;1.59;64.74;98461.42;225736;1235;136797;-66
2022/12/15 13:15:27;;;;;;;69.90;30.30;;;;;;;1.68;64.50;98475.44;223888;1245;138405;-66
2022/12/15 13:29:21;;;;;;;;;;;;;;;;;;;;;
2022/12/15 13:35:45;;;;;;;61.10;30.20;;;;;;;1.78;64.87;98466.13;223513;1243;137842;-66
2022/12/15 13:41:47;;;;;;;61.00;29.50;;;;;;;1.81;65.04;98466.20;225070;1242;138287;-67
2022/12/15 13:52:55;;;;;;;60.00;29.70;;;;;;;1.99;65.06;98463.81;223354;1254;636808;-66
2022/12/15 13:59:04;;;;;;;54.40;28.50;;;;;;;2.06;64.70;98473.90;225215;1238;138345;-65
2022/12/15 14:04:15;;;;;;;53.20;29.80;;;;;;;2.08;64.54;98483.10;226901;1235;138271;-66
2022/12/15 14:09:42;;;;;;;57.00;29.60;;;;;;;2.10;64.66;98502.43;226956;1237;137897;-65
2022/12/15 14:15:04;;;;;;;558.30;353.70;;;;;;;2.09;64.96;98515.05;226844;1234;137819;-66
2022/12/15 14:20:19;;;;;;;71.50;38.80;;;;;;;2.19;65.11;98518.57;225777;1239;138873;-66
2022/12/15 14:25:33;;;;;;;55.20;29.20;;;;;;;2.14;64.71;98526.77;225924;1240;138961;-66
2022/12/15 14:30:47;;;;;;;63.80;29.60;;;;;;;2.06;64.80;98540.56;225822;1238;137618;-66
2022/12/15 14:35:58;;;;;;;58.40;29.70;;;;;;;1.99;64.97;98550.25;226037;1240;137352;-66
2022/12/15 14:41:05;;;;;;;55.80;28.20;;;;;;;1.96;64.97;98570.30;225957;1238;137653;-68
2022/12/15 14:46:41;;;;;;;61.80;29.90;;;;;;;1.94;65.04;98589.23;226744;1234;137961;-68
2022/12/15 14:51:56;;;;;;;59.80;30.30;;;;;;;1.92;65.32;98583.38;226217;1237;138370;-68
2022/12/15 14:57:13;;;;;;;56.10;28.20;;;;;;;1.89;65.62;98580.33;227282;1231;137838;-68
2022/12/15 15:02:23;;;;;;;53.90;29.30;;;;;;;1.84;65.66;98584.34;226573;1236;137834;-67
2022/12/15 15:07:44;;;;;;;62.70;29.50;;;;;;;1.79;65.57;98591.14;227521;1228;137708;-66
2022/12/15 15:12:50;;;;;;;60.40;30.00;;;;;;;1.76;65.93;98596.17;227403;1231;138426;-66
2022/12/15 15:17:57;;;;;;;58.00;30.50;;;;;;;1.71;66.02;98590.20;226511;1220;137602;-67
2022/12/15 15:23:11;;;;;;;57.90;30.10;;;;;;;1.72;66.13;98586.52;227344;1229;138414;-67
2022/12/15 15:28:41;;;;;;;56.90;30.60;;;;;;;1.75;66.08;98583.94;226132;1226;138682;-66
2022/12/15 15:33:45;;;;;;;59.30;32.00;;;;;;;1.87;66.03;98583.73;227628;1227;139358;-66
2022/12/15 15:38:51;;;;;;;67.70;32.20;;;;;;;1.93;65.93;98589.46;227208;1231;139784;-66
2022/12/15 15:43:58;;;;;;;64.10;33.20;;;;;;;1.96;65.91;98598.09;226013;1241;137835;-67
2022/12/15 15:49:07;;;;;;;61.50;31.80;;;;;;;1.98;65.93;98607.51;227000;1234;137776;-66
2022/12/15 15:54:14;;;;;;;58.50;31.30;;;;;;;1.96;65.79;98610.86;226454;1238;138087;-66
2022/12/15 15:59:37;;;;;;;61.90;33.00;;;;;;;1.92;65.81;98612.40;227218;1237;138720;-67
2022/12/15 16:04:42;;;;;;;61.20;32.40;;;;;;;1.88;65.86;98614.30;226282;1237;137658;-66
2022/12/15 16:09:46;;;;;;;64.00;32.80;;;;;;;1.85;65.66;98621.38;226436;1240;137551;-66
2022/12/15 16:14:50;;;;;;;252.40;131.90;;;;;;;1.86;66.23;98621.16;226183;1238;138811;-65
2022/12/15 16:19:56;;;;;;;74.30;40.00;;;;;;;1.95;65.79;98613.55;226348;1241;138639;-66
2022/12/15 16:25:16;;;;;;;65.50;35.80;;;;;;;1.89;65.53;98610.23;227429;1234;138028;-66
2022/12/15 16:30:24;;;;;;;261.00;143.80;;;;;;;1.84;65.82;98595.00;227410;1234;137949;-67
2022/12/15 16:35:49;;;;;;;79.60;42.60;;;;;;;1.89;65.71;98585.58;226176;1235;138194;-67
2022/12/15 16:41:03;;;;;;;77.70;40.50;;;;;;;1.84;65.52;98584.50;226387;1238;137998;-67
2022/12/15 16:46:11;;;;;;;84.90;43.50;;;;;;;1.84;65.45;98591.33;226331;1238;138021;-66
2022/12/15 16:51:33;;;;;;;77.30;40.00;;;;;;;1.71;65.52;98586.17;226231;1238;138974;-66
2022/12/15 16:56:36;;;;;;;70.00;38.20;;;;;;;1.66;65.98;98586.33;226334;1244;138448;-68
2022/12/15 17:01:40;;;;;;;72.80;41.80;;;;;;;1.70;66.06;98600.90;227520;1243;138090;-66
2022/12/15 17:06:44;;;;;;;70.80;40.40;;;;;;;1.71;66.18;98608.91;227522;1226;138432;-65
2022/12/15 17:11:49;;;;;;;76.50;43.10;;;;;;;1.75;66.17;98610.89;226420;1251;138344;-66
2022/12/15 17:16:53;;;;;;;85.40;45.30;;;;;;;1.82;65.83;98609.42;226213;1237;137482;-65
2022/12/15 17:21:59;;;;;;;82.00;43.00;;;;;;;1.84;65.54;98614.77;226087;1238;138319;-66
2022/12/15 17:27:04;;;;;;;80.80;43.50;;;;;;;1.85;65.51;98617.70;226014;1240;138283;-66
2022/12/15 17:32:11;;;;;;;221.60;141.00;;;;;;;1.85;65.14;98621.91;227531;1227;138423;-69
2022/12/15 17:37:15;;;;;;;83.90;46.70;;;;;;;1.94;66.03;98611.46;226294;1234;138315;-65
2022/12/15 17:42:20;;;;;;;79.20;44.30;;;;;;;1.95;64.64;98601.28;227446;1230;138653;-66
2022/12/15 17:47:43;;;;;;;78.70;42.90;;;;;;;1.81;64.71;98602.98;226109;1240;138475;-67
2022/12/15 17:52:47;;;;;;;80.50;43.20;;;;;;;1.70;64.73;98590.77;227460;1234;138255;-65
2022/12/15 17:58:23;;;;;;;80.10;42.20;;;;;;;1.62;64.79;98581.77;227443;1226;138402;-65
2022/12/15 18:03:27;;;;;;;75.40;40.90;;;;;;;1.59;64.91;98582.55;226227;1241;139373;-66
2022/12/15 18:08:33;;;;;;;81.20;41.80;;;;;;;1.54;64.94;98588.85;226174;1230;139177;-65
2022/12/15 18:13:47;;;;;;;74.00;41.00;;;;;;;1.50;64.87;98588.63;226227;1238;139184;-65
2022/12/15 18:19:00;;;;;;;72.90;41.30;;;;;;;1.47;65.11;98584.37;226214;1233;138949;-65
2022/12/15 18:24:22;;;;;;;75.20;40.80;;;;;;;1.44;64.97;98588.13;227494;1235;137965;-65
2022/12/15 18:29:41;;;;;;;75.60;42.10;;;;;;;1.42;65.02;98597.61;226165;1230;138318;-66
2022/12/15 18:34:48;;;;;;;79.30;43.00;;;;;;;1.40;65.09;98598.23;226291;1238;138020;-66
2022/12/15 18:39:58;;;;;;;74.80;40.70;;;;;;;1.38;64.91;98610.14;226299;1238;138734;-65
2022/12/15 18:45:19;;;;;;;78.30;43.30;;;;;;;1.41;64.84;98626.33;227389;1238;138043;-66
2022/12/15 18:50:38;;;;;;;74.80;40.00;;;;;;;1.45;64.85;98624.63;227215;1229;138060;-66
2022/12/15 18:55:52;;;;;;;275.00;165.90;;;;;;;1.47;65.22;98637.84;227009;1237;138758;-65
2022/12/15 19:00:58;;;;;;;68.60;38.30;;;;;;;1.60;65.87;98636.70;226305;1234;138860;-66
2022/12/15 19:06:21;;;;;;;66.10;36.00;;;;;;;1.61;64.70;98631.80;227450;1227;139086;-64
2022/12/15 19:11:31;;;;;;;66.80;36.00;;;;;;;1.61;64.34;98631.27;226395;1238;138160;-66
2022/12/15 19:22:30;;;;;;;87.40;44.40;;;;;;;1.82;64.14;98596.63;227172;1235;139646;-68
2022/12/15 19:28:20;;;;;;;67.30;37.90;;;;;;;1.70;63.98;98601.95;226168;1243;138475;-67
2022/12/15 19:34:11;;;;;;;66.00;37.40;;;;;;;1.59;64.13;98602.66;225943;1236;138028;-66
2022/12/15 19:39:23;;;;;;;67.60;38.30;;;;;;;1.49;64.07;98589.70;226450;1231;138024;-66
2022/12/15 19:44:51;;;;;;;68.40;38.80;;;;;;;1.41;64.39;98596.27;226171;1238;137748;-66
2022/12/15 19:50:03;;;;;;;70.50;37.90;;;;;;;1.32;64.36;98594.98;225794;1240;138387;-66
2022/12/15 19:55:16;;;;;;;73.10;39.20;;;;;;;1.27;64.65;98598.98;226125;1233;138732;-67
2022/12/15 20:00:23;;;;;;;65.00;38.20;;;;;;;1.24;64.40;98595.23;227098;1229;137872;-67
2022/12/15 20:05:28;;;;;;;63.30;36.50;;;;;;;1.21;64.35;98599.01;227210;1230;137844;-65
2022/12/15 20:10:35;;;;;;;62.20;36.30;;;;;;;1.17;64.37;98598.76;226159;1238;138495;-66
2022/12/15 20:15:59;;;;;;;64.00;35.30;;;;;;;1.16;64.29;98595.83;226960;1227;140632;-67
2022/12/15 20:21:10;;;;;;;57.40;33.20;;;;;;;1.14;64.09;98586.29;227352;1217;138449;-66
2022/12/15 20:26:20;;;;;;;61.00;34.40;;;;;;;1.10;64.23;98579.77;226953;1229;138104;-67
2022/12/15 20:31:24;;;;;;;58.30;33.70;;;;;;;1.10;64.06;98588.16;226152;1238;138782;-65
2022/12/15 20:36:30;;;;;;;63.50;34.60;;;;;;;1.08;63.95;98585.24;226039;1240;138512;-65
2022/12/15 20:42:13;;;;;;;61.30;34.20;;;;;;;1.04;64.07;98572.80;227082;1233;137794;-65
2022/12/15 20:47:53;;;;;;;;;;;;;;;;;;;;;
2022/12/15 20:53:26;;;;;;;52.80;31.40;;;;;;;1.02;63.96;98554.19;226001;1239;137921;-65
2022/12/15 20:58:50;;;;;;;56.20;31.50;;;;;;;1.01;64.01;98554.19;225872;1233;138449;-64
2022/12/15 21:04:24;;;;;;;52.90;30.10;;;;;;;1.01;63.88;98549.12;226080;1240;138047;-65
2022/12/15 21:09:45;;;;;;;57.90;30.50;;;;;;;0.99;63.77;98546.40;226387;1235;138055;-66
2022/12/15 21:15:16;;;;;;;56.30;30.40;;;;;;;0.96;63.63;98555.74;226067;1237;138618;-65
2022/12/15 21:20:31;;;;;;;50.10;27.90;;;;;;;0.96;63.60;98563.29;225985;1231;138454;-64
2022/12/15 21:25:42;;;;;;;48.90;28.20;;;;;;;0.93;63.61;98559.84;225848;1241;138493;-65
2022/12/15 21:30:52;;;;;;;48.90;27.10;;;;;;;0.93;63.46;98539.95;225971;1238;138197;-64
2022/12/15 21:35:59;;;;;;;47.40;26.90;;;;;;;0.89;63.75;98528.20;225962;1233;138528;-66
2022/12/15 21:41:10;;;;;;;53.60;28.60;;;;;;;0.83;63.65;98519.83;225876;1237;137940;-64
2022/12/15 21:46:35;;;;;;;46.90;26.80;;;;;;;0.85;63.62;98507.20;225710;1239;208352;-63
2022/12/15 21:51:59;;;;;;;50.70;27.50;;;;;;;0.93;63.61;98509.04;226151;1240;138171;-64
2022/12/15 21:57:05;;;;;;;47.60;26.60;;;;;;;0.99;63.30;98508.86;225730;1244;137901;-63
2022/12/15 22:02:59;;;;;;;46.10;25.80;;;;;;;1.00;63.11;98501.84;226788;1233;138503;-63
2022/12/15 22:08:15;;;;;;;41.50;23.50;;;;;;;0.96;63.14;98480.65;225714;1240;139762;-64
2022/12/15 22:13:22;;;;;;;46.50;25.20;;;;;;;0.93;63.15;98476.21;226197;1247;138087;-63
2022/12/15 22:18:29;;;;;;;44.00;24.60;;;;;;;0.88;63.00;98475.33;225749;1241;138290;-64
2022/12/15 22:23:46;;;;;;;48.90;26.10;;;;;;;0.83;63.05;98478.96;225680;1240;138375;-64
2022/12/15 22:29:32;;;;;;;46.70;24.00;;;;;;;0.84;63.32;98472.99;225795;1241;138450;-64
2022/12/15 22:34:43;;;;;;;49.10;26.00;;;;;;;0.80;63.43;98465.62;227042;1241;138252;-65
2022/12/15 22:39:54;;;;;;;50.40;26.40;;;;;;;0.77;63.45;98488.42;225576;1237;139681;-65
2022/12/15 22:44:59;;;;;;;49.00;26.20;;;;;;;0.78;63.53;98492.06;225677;1241;138620;-64
2022/12/15 22:50:05;;;;;;;50.20;27.40;;;;;;;0.78;63.58;98495.38;225793;1240;138298;-64
2022/12/15 22:55:11;;;;;;;;;;;;;;;0.80;63.84;98494.63;225943;1244;138187;-63
2022/12/15 23:00:17;;;;;;;51.90;27.20;;;;;;;0.78;63.91;98474.94;225683;1236;124777;-65
2022/12/15 23:05:25;;;;;;;49.60;26.70;;;;;;;0.78;64.09;98469.02;226136;1243;138366;-64
2022/12/15 23:16:31;;;;;;;51.40;28.60;;;;;;;0.79;64.11;98443.14;227562;1233;138137;-65
2022/12/15 23:21:43;;;;;;;56.40;28.60;;;;;;;0.78;64.26;98428.85;226266;1241;138240;-65
2022/12/15 23:27:01;;;;;;;53.20;27.90;;;;;;;0.79;64.41;98418.52;227261;1206;138901;-66
2022/12/15 23:32:05;;;;;;;53.00;28.10;;;;;;;0.80;64.43;98410.82;226296;1238;138339;-67
2022/12/15 23:37:19;;;;;;;59.10;30.10;;;;;;;0.79;64.53;98400.90;226612;1239;138501;-66
2022/12/15 23:42:24;;;;;;;60.30;31.00;;;;;;;0.82;64.64;98404.12;226856;1206;138095;-66
2022/12/15 23:47:43;;;;;;;58.00;31.30;;;;;;;0.84;64.80;98404.37;225993;1232;138029;-66
2022/12/15 23:52:53;;;;;;;58.10;32.60;;;;;;;0.84;64.75;98412.61;227182;1234;138471;-66
2022/12/15 23:58:01;;;;;;;63.70;33.00;;;;;;;0.84;64.97;98402.30;226312;1237;138648;-66
